Terminal Aerodrome Forecast
Issued by NWS

Home | Current Version | Previous Version | Text Only | Print | Product List | Glossary On
Versions: 1 2 3 4 5 6 7 8 9 10 11 12 13
000
FTUS42 KMLB 252320
TAFLEE
TAF
KLEE 252320Z 2600/2624 25008KT P6SM FEW060 SCT300
     FM260900 23007KT P6SM SCT005 BKN020 BKN100
     FM261500 25015G26KT P6SM VCSH BKN035 BKN100=

USA.gov is the U.S. government's official web portal to all federal, state and local government web resources and services.